createdAt,value
2022-12-22T00:05:06.095Z,9.18
2022-12-22T00:10:34.968Z,8.02
2022-12-22T00:15:55.765Z,10.75
2022-12-22T00:21:30.140Z,9.50
2022-12-22T00:26:53.183Z,8.02
2022-12-22T00:32:24.390Z,8.02
2022-12-22T00:37:52.875Z,9.27
2022-12-22T00:43:19.879Z,13.75
2022-12-22T00:49:06.830Z,13.18
2022-12-22T00:54:31.839Z,11.95
2022-12-22T00:59:56.454Z,10.45
2022-12-22T01:05:17.262Z,10.65
2022-12-22T01:10:47.630Z,9.80
2022-12-22T01:16:25.740Z,10.02
2022-12-22T01:21:46.983Z,12.85
2022-12-22T01:27:09.719Z,10.60
2022-12-22T01:32:34.067Z,11.13
2022-12-22T01:38:01.498Z,10.30
2022-12-22T01:43:41.635Z,10.93
2022-12-22T01:49:10.226Z,10.85
2022-12-22T01:54:38.699Z,12.18
2022-12-22T02:00:03.965Z,14.65
2022-12-22T02:05:36.442Z,11.38
2022-12-22T02:11:36.731Z,10.63
2022-12-22T02:17:06.629Z,10.55
2022-12-22T02:22:37.100Z,12.13
2022-12-22T02:28:02.319Z,11.32
2022-12-22T02:33:30.327Z,11.02
2022-12-22T02:39:08.949Z,9.85
2022-12-22T02:45:02.155Z,12.77
2022-12-22T02:51:00.018Z,11.38
2022-12-22T02:56:30.555Z,12.55
2022-12-22T03:01:52.865Z,10.95
2022-12-22T03:07:15.145Z,10.70
2022-12-22T03:12:40.664Z,11.20
2022-12-22T03:18:37.364Z,10.52
2022-12-22T03:29:04.271Z,12.90
2022-12-22T03:34:07.823Z,10.85
2022-12-22T03:39:11.399Z,12.32
2022-12-22T03:44:41.606Z,12.00
2022-12-22T03:55:07.172Z,10.30
2022-12-22T04:00:18.931Z,8.02
2022-12-22T04:05:24.574Z,11.95
2022-12-22T04:10:48.703Z,11.45
2022-12-22T04:16:02.839Z,9.70
2022-12-22T04:21:15.789Z,12.75
2022-12-22T04:26:31.592Z,10.35
2022-12-22T04:31:50.393Z,10.15
2022-12-22T04:37:02.339Z,11.57
2022-12-22T04:42:13.255Z,9.63
2022-12-22T04:47:23.642Z,7.18
2022-12-22T04:52:27.388Z,8.35
2022-12-22T04:57:37.036Z,13.25
2022-12-22T05:02:46.823Z,8.77
2022-12-22T05:07:51.864Z,8.07
2022-12-22T05:13:07.241Z,9.38
2022-12-22T05:18:13.436Z,8.55
2022-12-22T05:23:26.885Z,10.20
2022-12-22T05:28:35.050Z,8.30
2022-12-22T05:33:42.300Z,9.50
2022-12-22T05:38:55.794Z,8.25
2022-12-22T05:44:09.655Z,13.02
2022-12-22T05:49:18.301Z,7.20
2022-12-22T05:54:27.960Z,11.20
2022-12-22T05:59:32.734Z,9.88
2022-12-22T06:04:42.203Z,9.10
2022-12-22T06:09:45.602Z,8.17
2022-12-22T06:14:53.523Z,10.07
2022-12-22T06:19:59.193Z,10.07
2022-12-22T06:25:05.093Z,8.80
2022-12-22T06:30:10.306Z,7.80
2022-12-22T06:35:18.810Z,8.52
2022-12-22T06:40:29.067Z,9.63
2022-12-22T06:45:31.949Z,8.63
2022-12-22T06:50:43.548Z,10.57
2022-12-22T06:55:48.625Z,8.13
2022-12-22T07:00:57.631Z,7.97
2022-12-22T07:06:02.972Z,6.30
2022-12-22T07:11:18.863Z,7.90
2022-12-22T07:16:23.673Z,7.15
2022-12-22T07:21:30.532Z,7.80
2022-12-22T07:26:47.010Z,7.85
2022-12-22T07:31:57.224Z,8.10
2022-12-22T07:37:01.203Z,6.70
2022-12-22T07:42:39.177Z,8.57
2022-12-22T07:53:45.438Z,10.53
2022-12-22T07:58:48.354Z,6.50
2022-12-22T08:03:59.917Z,9.70
2022-12-22T08:09:43.632Z,9.73
2022-12-22T08:14:59.597Z,7.72
2022-12-22T08:20:19.036Z,9.13
2022-12-22T08:25:23.624Z,8.98
2022-12-22T08:30:50.510Z,6.03
2022-12-22T08:36:04.241Z,6.07
2022-12-22T08:47:16.473Z,5.75
2022-12-22T08:52:32.559Z,7.75
2022-12-22T08:57:57.145Z,8.18
2022-12-22T09:03:04.302Z,13.27
2022-12-22T09:08:10.000Z,8.38
2022-12-22T09:18:51.707Z,6.63
2022-12-22T09:24:17.920Z,7.38
2022-12-22T09:29:27.603Z,7.20
2022-12-22T09:34:35.729Z,7.15
2022-12-22T09:39:38.145Z,5.13
2022-12-22T09:44:46.621Z,5.55
2022-12-22T09:50:03.248Z,5.47
2022-12-22T09:55:34.829Z,4.38
2022-12-22T10:00:41.372Z,4.35
2022-12-22T10:05:51.424Z,3.10
2022-12-22T10:10:56.862Z,3.25
2022-12-22T10:16:00.341Z,3.95
2022-12-22T10:21:15.560Z,2.65
2022-12-22T10:26:48.600Z,1.25
2022-12-22T10:32:26.274Z,1.35
2022-12-22T10:48:40.992Z,1.37
2022-12-22T10:54:27.919Z,1.17
2022-12-22T11:00:23.354Z,1.38
2022-12-22T11:06:09.789Z,1.05
2022-12-22T11:11:31.550Z,0.80
2022-12-22T11:17:02.163Z,0.50
2022-12-22T11:22:25.916Z,0.32
2022-12-22T11:27:55.562Z,0.73
2022-12-22T11:33:56.131Z,1.13
2022-12-22T11:39:14.082Z,0.50
2022-12-22T11:44:36.840Z,0.65
2022-12-22T11:49:48.471Z,1.00
2022-12-22T11:55:24.449Z,0.70
2022-12-22T12:01:04.247Z,1.40
2022-12-22T12:06:07.291Z,1.00
2022-12-22T12:17:38.729Z,2.13
2022-12-22T12:22:47.448Z,1.60
2022-12-22T12:28:32.642Z,2.03
2022-12-22T12:33:54.697Z,1.83
2022-12-22T12:39:42.565Z,1.77
2022-12-22T12:44:47.093Z,2.33
2022-12-22T12:50:00.768Z,1.73
2022-12-22T12:55:31.855Z,2.42
2022-12-22T13:00:43.179Z,1.75
2022-12-22T13:06:07.543Z,1.88
2022-12-22T13:11:31.077Z,1.98
2022-12-22T13:16:41.836Z,4.28
2022-12-22T13:21:54.615Z,2.88
2022-12-22T13:27:09.134Z,2.95
2022-12-22T13:32:35.977Z,2.75
2022-12-22T13:37:49.127Z,2.42
2022-12-22T13:43:17.065Z,2.40
2022-12-22T13:48:44.736Z,1.85
2022-12-22T13:54:08.334Z,3.78
2022-12-22T13:59:37.296Z,3.13
2022-12-22T14:05:04.334Z,3.08
2022-12-22T14:10:16.275Z,2.75
2022-12-22T14:15:20.966Z,2.00
2022-12-22T14:20:45.881Z,1.67
2022-12-22T14:25:57.091Z,1.23
2022-12-22T14:31:08.922Z,1.52
2022-12-22T14:36:26.260Z,2.45
2022-12-22T14:41:46.655Z,1.50
2022-12-22T14:53:33.226Z,2.40
2022-12-22T14:58:41.911Z,2.85
2022-12-22T15:03:45.944Z,2.15
2022-12-22T15:08:48.479Z,3.20
2022-12-22T15:13:52.892Z,4.25
2022-12-22T15:19:18.241Z,3.50
2022-12-22T15:29:57.802Z,3.60
2022-12-22T15:35:18.440Z,2.53
2022-12-22T15:40:31.673Z,2.90
2022-12-22T15:45:44.272Z,2.95
2022-12-22T15:51:12.076Z,3.60
2022-12-22T15:56:20.505Z,3.83
2022-12-22T16:01:42.895Z,3.42
2022-12-22T16:06:46.911Z,2.92
2022-12-22T16:11:49.509Z,3.95
2022-12-22T16:16:52.012Z,2.90
2022-12-22T16:21:54.681Z,2.40
2022-12-22T16:27:17.952Z,3.80
2022-12-22T16:32:30.702Z,2.45
2022-12-22T16:37:32.872Z,4.75
2022-12-22T16:48:04.784Z,2.85
2022-12-22T16:53:11.186Z,3.88
2022-12-22T16:58:14.247Z,3.53
2022-12-22T17:03:23.316Z,3.17
2022-12-22T17:08:49.467Z,3.85
2022-12-22T17:13:55.990Z,4.20
2022-12-22T17:19:07.885Z,4.30
2022-12-22T17:24:33.611Z,4.70
2022-12-22T17:29:43.904Z,5.38
2022-12-22T17:34:50.039Z,6.53
2022-12-22T17:40:01.675Z,6.18
2022-12-22T17:45:15.721Z,6.13
2022-12-22T17:56:10.137Z,5.55
2022-12-22T18:01:19.357Z,4.93
2022-12-22T18:06:30.222Z,5.97
2022-12-22T18:11:45.846Z,5.35
2022-12-22T18:16:52.768Z,6.03
2022-12-22T18:21:58.026Z,7.20
2022-12-22T18:27:04.429Z,8.43
2022-12-22T18:32:09.756Z,6.60
2022-12-22T18:37:18.077Z,6.53
2022-12-22T18:42:24.559Z,10.03
2022-12-22T18:47:27.062Z,7.03
2022-12-22T18:52:31.122Z,7.25
2022-12-22T18:57:36.231Z,8.25
2022-12-22T19:02:41.220Z,11.50
2022-12-22T19:07:49.693Z,7.63
2022-12-22T19:12:56.136Z,8.88
2022-12-22T19:18:01.885Z,9.48
2022-12-22T19:23:06.320Z,8.65
2022-12-22T19:28:16.613Z,7.13
2022-12-22T19:33:25.342Z,8.50
2022-12-22T19:38:28.815Z,8.90
2022-12-22T19:43:33.588Z,7.32
2022-12-22T19:48:38.393Z,9.00
2022-12-22T19:53:41.806Z,8.43
2022-12-22T19:58:46.962Z,7.22
2022-12-22T20:03:52.258Z,6.95
2022-12-22T20:09:01.416Z,8.50
2022-12-22T20:14:03.686Z,8.95
2022-12-22T20:19:16.939Z,6.57
2022-12-22T20:24:22.932Z,8.30
2022-12-22T20:29:27.129Z,7.63
2022-12-22T20:34:30.192Z,8.82
2022-12-22T20:39:32.585Z,8.68
2022-12-22T20:44:34.733Z,8.13
2022-12-22T20:49:37.095Z,8.30
2022-12-22T20:54:41.611Z,9.10
2022-12-22T20:59:55.647Z,8.80
2022-12-22T21:04:59.815Z,8.13
2022-12-22T21:10:04.956Z,6.28
2022-12-22T21:15:10.544Z,7.45
2022-12-22T21:20:27.194Z,7.53
2022-12-22T21:25:29.591Z,7.20
2022-12-22T21:30:31.909Z,6.38
2022-12-22T21:35:37.060Z,5.65
2022-12-22T21:40:40.070Z,7.28
2022-12-22T21:45:44.378Z,8.63
2022-12-22T21:50:50.365Z,5.78
2022-12-22T21:55:56.526Z,5.55
2022-12-22T22:01:00.420Z,6.70
2022-12-22T22:06:02.572Z,8.23
2022-12-22T22:11:18.902Z,5.50
2022-12-22T22:16:22.419Z,7.10
2022-12-22T22:21:27.736Z,7.47
2022-12-22T22:26:30.998Z,9.68
2022-12-22T22:31:34.419Z,8.65
2022-12-22T22:36:36.681Z,6.32
2022-12-22T22:41:43.331Z,9.75
2022-12-22T22:46:47.755Z,5.93
2022-12-22T22:51:57.762Z,4.97
2022-12-22T22:57:06.091Z,4.80
2022-12-22T23:02:11.403Z,3.85
2022-12-22T23:12:25.610Z,4.20
2022-12-22T23:17:45.864Z,4.80
2022-12-22T23:28:36.844Z,1.30
2022-12-22T23:33:50.023Z,1.80
2022-12-22T23:44:54.611Z,1.17
2022-12-22T23:50:51.257Z,0.85
2022-12-22T23:56:09.373Z,0.52
